sensor_id;sensor_type;location;lat;lon;timestamp;pressure;altitude;pressure_sealevel;temperature;humidity
81999;BME280;71598;46.516;-122.928;2023-12-20T00:00:34;98991.58;;;26.42;16.99
81999;BME280;71598;46.516;-122.928;2023-12-20T00:03:00;99002.41;;;26.21;17.04
81999;BME280;71598;46.516;-122.928;2023-12-20T00:05:25;99004.34;;;26.14;17.07
81999;BME280;71598;46.516;-122.928;2023-12-20T00:07:51;99006.17;;;26.22;17.13
81999;BME280;71598;46.516;-122.928;2023-12-20T00:10:16;99011.63;;;26.23;17.18
81999;BME280;71598;46.516;-122.928;2023-12-20T00:12:41;99015.04;;;25.60;17.34
81999;BME280;71598;46.516;-122.928;2023-12-20T00:15:07;99019.92;;;25.42;17.35
81999;BME280;71598;46.516;-122.928;2023-12-20T00:17:31;99023.38;;;25.42;17.41
81999;BME280;71598;46.516;-122.928;2023-12-20T00:19:59;99026.83;;;25.78;17.38
81999;BME280;71598;46.516;-122.928;2023-12-20T00:22:23;99030.47;;;25.74;17.31
81999;BME280;71598;46.516;-122.928;2023-12-20T00:24:49;99031.91;;;25.92;17.29
81999;BME280;71598;46.516;-122.928;2023-12-20T00:27:14;99036.88;;;25.59;17.25
81999;BME280;71598;46.516;-122.928;2023-12-20T00:29:39;99041.66;;;25.59;17.40
81999;BME280;71598;46.516;-122.928;2023-12-20T00:32:05;99044.23;;;25.48;17.38
81999;BME280;71598;46.516;-122.928;2023-12-20T00:34:30;99045.27;;;25.78;17.42
81999;BME280;71598;46.516;-122.928;2023-12-20T00:36:56;99049.25;;;25.59;17.45
81999;BME280;71598;46.516;-122.928;2023-12-20T00:39:22;99053.07;;;25.54;17.48
81999;BME280;71598;46.516;-122.928;2023-12-20T00:41:47;99055.46;;;25.37;17.50
81999;BME280;71598;46.516;-122.928;2023-12-20T00:44:12;99055.11;;;25.22;17.77
81999;BME280;71598;46.516;-122.928;2023-12-20T00:46:38;99054.72;;;25.20;17.77
81999;BME280;71598;46.516;-122.928;2023-12-20T00:49:02;99052.58;;;25.56;17.60
81999;BME280;71598;46.516;-122.928;2023-12-20T00:51:29;99055.54;;;25.75;17.51
81999;BME280;71598;46.516;-122.928;2023-12-20T00:53:53;99056.97;;;25.94;17.45
81999;BME280;71598;46.516;-122.928;2023-12-20T00:56:19;99056.64;;;25.98;17.36
81999;BME280;71598;46.516;-122.928;2023-12-20T00:58:45;99060.52;;;25.73;17.43
81999;BME280;71598;46.516;-122.928;2023-12-20T01:01:10;99061.77;;;25.95;17.47
81999;BME280;71598;46.516;-122.928;2023-12-20T01:03:36;99062.27;;;25.61;17.54
81999;BME280;71598;46.516;-122.928;2023-12-20T01:06:02;99060.16;;;25.86;17.49
81999;BME280;71598;46.516;-122.928;2023-12-20T01:08:27;99059.76;;;25.74;17.53
81999;BME280;71598;46.516;-122.928;2023-12-20T01:10:53;99067.24;;;25.76;17.61
81999;BME280;71598;46.516;-122.928;2023-12-20T01:13:18;99069.87;;;25.19;17.91
81999;BME280;71598;46.516;-122.928;2023-12-20T01:15:44;99075.84;;;25.31;17.95
81999;BME280;71598;46.516;-122.928;2023-12-20T01:18:10;99080.85;;;25.40;17.76
81999;BME280;71598;46.516;-122.928;2023-12-20T01:20:36;99088.09;;;25.84;17.49
81999;BME280;71598;46.516;-122.928;2023-12-20T01:23:01;99092.42;;;26.23;17.25
81999;BME280;71598;46.516;-122.928;2023-12-20T01:25:27;99099.01;;;26.63;17.13
81999;BME280;71598;46.516;-122.928;2023-12-20T01:27:52;99101.39;;;26.61;16.97
81999;BME280;71598;46.516;-122.928;2023-12-20T01:30:18;99103.66;;;26.78;16.86
81999;BME280;71598;46.516;-122.928;2023-12-20T01:32:43;99105.47;;;27.00;16.71
81999;BME280;71598;46.516;-122.928;2023-12-20T01:35:09;99104.93;;;27.43;16.55
81999;BME280;71598;46.516;-122.928;2023-12-20T01:37:34;99102.76;;;27.49;16.42
81999;BME280;71598;46.516;-122.928;2023-12-20T01:39:59;99103.69;;;27.48;16.41
81999;BME280;71598;46.516;-122.928;2023-12-20T01:42:24;99101.99;;;27.68;16.39
81999;BME280;71598;46.516;-122.928;2023-12-20T01:44:50;99102.06;;;28.38;16.28
81999;BME280;71598;46.516;-122.928;2023-12-20T01:47:16;99102.43;;;28.00;16.26
81999;BME280;71598;46.516;-122.928;2023-12-20T01:49:41;99106.46;;;28.07;16.07
81999;BME280;71598;46.516;-122.928;2023-12-20T01:52:09;99110.66;;;28.27;16.00
81999;BME280;71598;46.516;-122.928;2023-12-20T01:54:33;99112.20;;;28.23;15.99
81999;BME280;71598;46.516;-122.928;2023-12-20T01:56:58;99113.46;;;28.13;16.00
81999;BME280;71598;46.516;-122.928;2023-12-20T01:59:24;99115.31;;;28.11;15.91
81999;BME280;71598;46.516;-122.928;2023-12-20T02:01:49;99120.64;;;28.28;15.88
81999;BME280;71598;46.516;-122.928;2023-12-20T02:04:14;99119.00;;;28.30;15.96
81999;BME280;71598;46.516;-122.928;2023-12-20T02:06:41;99127.03;;;28.57;15.93
81999;BME280;71598;46.516;-122.928;2023-12-20T02:09:05;99132.59;;;28.39;15.85
81999;BME280;71598;46.516;-122.928;2023-12-20T02:11:30;99133.58;;;28.60;15.88
81999;BME280;71598;46.516;-122.928;2023-12-20T02:13:57;99132.59;;;28.51;15.97
81999;BME280;71598;46.516;-122.928;2023-12-20T02:16:22;99132.03;;;28.27;16.12
81999;BME280;71598;46.516;-122.928;2023-12-20T02:18:46;99133.15;;;28.18;16.06
81999;BME280;71598;46.516;-122.928;2023-12-20T02:21:11;99133.83;;;28.36;16.12
81999;BME280;71598;46.516;-122.928;2023-12-20T02:23:37;99134.75;;;28.34;16.13
81999;BME280;71598;46.516;-122.928;2023-12-20T02:26:03;99136.33;;;28.34;16.04
81999;BME280;71598;46.516;-122.928;2023-12-20T02:28:29;99132.05;;;28.57;16.03
81999;BME280;71598;46.516;-122.928;2023-12-20T02:30:53;99132.46;;;28.47;16.05
81999;BME280;71598;46.516;-122.928;2023-12-20T02:33:18;99130.52;;;28.38;15.98
81999;BME280;71598;46.516;-122.928;2023-12-20T02:35:44;99126.27;;;28.27;16.16
81999;BME280;71598;46.516;-122.928;2023-12-20T02:38:09;99125.44;;;28.68;15.92
81999;BME280;71598;46.516;-122.928;2023-12-20T02:40:34;99126.99;;;28.28;16.36
81999;BME280;71598;46.516;-122.928;2023-12-20T02:43:00;99133.88;;;27.61;16.69
81999;BME280;71598;46.516;-122.928;2023-12-20T02:45:26;99139.25;;;27.81;16.63
81999;BME280;71598;46.516;-122.928;2023-12-20T02:47:52;99142.07;;;28.28;16.25
81999;BME280;71598;46.516;-122.928;2023-12-20T02:50:16;99152.02;;;27.71;16.46
81999;BME280;71598;46.516;-122.928;2023-12-20T02:52:45;99151.86;;;27.19;16.50
81999;BME280;71598;46.516;-122.928;2023-12-20T02:55:09;99147.44;;;27.24;16.47
81999;BME280;71598;46.516;-122.928;2023-12-20T02:57:33;99154.70;;;25.88;16.92
81999;BME280;71598;46.516;-122.928;2023-12-20T02:59:58;99160.43;;;25.58;17.69
81999;BME280;71598;46.516;-122.928;2023-12-20T03:02:24;99164.51;;;24.76;18.25
81999;BME280;71598;46.516;-122.928;2023-12-20T03:04:50;99162.41;;;23.80;18.60
81999;BME280;71598;46.516;-122.928;2023-12-20T03:07:14;99168.13;;;23.35;19.21
81999;BME280;71598;46.516;-122.928;2023-12-20T03:09:39;99173.12;;;22.51;19.62
81999;BME280;71598;46.516;-122.928;2023-12-20T03:12:06;99183.10;;;22.81;19.70
81999;BME280;71598;46.516;-122.928;2023-12-20T03:14:30;99186.22;;;22.81;19.44
81999;BME280;71598;46.516;-122.928;2023-12-20T03:16:55;99197.53;;;22.64;19.64
81999;BME280;71598;46.516;-122.928;2023-12-20T03:19:24;99204.64;;;22.40;19.73
81999;BME280;71598;46.516;-122.928;2023-12-20T03:21:46;99210.75;;;22.68;19.63
81999;BME280;71598;46.516;-122.928;2023-12-20T03:24:15;99215.83;;;22.71;20.18
81999;BME280;71598;46.516;-122.928;2023-12-20T03:26:37;99221.28;;;22.82;19.98
81999;BME280;71598;46.516;-122.928;2023-12-20T03:29:03;99218.18;;;22.89;19.92
81999;BME280;71598;46.516;-122.928;2023-12-20T03:31:28;99222.49;;;22.85;19.71
81999;BME280;71598;46.516;-122.928;2023-12-20T03:33:54;99226.46;;;22.80;19.47
81999;BME280;71598;46.516;-122.928;2023-12-20T03:36:19;99230.43;;;23.02;19.85
81999;BME280;71598;46.516;-122.928;2023-12-20T03:38:44;99232.51;;;22.71;19.57
81999;BME280;71598;46.516;-122.928;2023-12-20T03:41:11;99241.25;;;22.18;20.01
81999;BME280;71598;46.516;-122.928;2023-12-20T03:43:35;99241.63;;;21.59;20.21
81999;BME280;71598;46.516;-122.928;2023-12-20T03:46:01;99243.75;;;21.37;20.56
81999;BME280;71598;46.516;-122.928;2023-12-20T03:48:26;99242.32;;;22.42;20.11
81999;BME280;71598;46.516;-122.928;2023-12-20T03:50:51;99249.03;;;23.23;19.34
81999;BME280;71598;46.516;-122.928;2023-12-20T03:53:17;99243.30;;;22.71;19.55
81999;BME280;71598;46.516;-122.928;2023-12-20T03:55:46;99243.75;;;23.27;19.29
81999;BME280;71598;46.516;-122.928;2023-12-20T03:58:09;99244.48;;;23.91;18.68
81999;BME280;71598;46.516;-122.928;2023-12-20T04:00:36;99244.85;;;23.47;19.06
81999;BME280;71598;46.516;-122.928;2023-12-20T04:02:58;99245.43;;;23.70;18.66
81999;BME280;71598;46.516;-122.928;2023-12-20T04:05:24;99243.46;;;23.84;18.65
81999;BME280;71598;46.516;-122.928;2023-12-20T04:07:49;99239.28;;;23.95;18.51
81999;BME280;71598;46.516;-122.928;2023-12-20T04:10:14;99239.45;;;23.66;18.57
81999;BME280;71598;46.516;-122.928;2023-12-20T04:12:41;99241.74;;;23.96;18.86
81999;BME280;71598;46.516;-122.928;2023-12-20T04:15:05;99244.35;;;23.37;19.24
81999;BME280;71598;46.516;-122.928;2023-12-20T04:17:30;99244.43;;;23.36;19.19
81999;BME280;71598;46.516;-122.928;2023-12-20T04:19:56;99248.78;;;23.49;19.11
81999;BME280;71598;46.516;-122.928;2023-12-20T04:22:22;99258.05;;;22.82;19.51
81999;BME280;71598;46.516;-122.928;2023-12-20T04:24:47;99262.95;;;23.12;19.35
81999;BME280;71598;46.516;-122.928;2023-12-20T04:27:12;99264.34;;;23.41;18.97
81999;BME280;71598;46.516;-122.928;2023-12-20T04:29:38;99265.46;;;23.58;18.84
81999;BME280;71598;46.516;-122.928;2023-12-20T04:32:05;99273.91;;;23.23;18.85
81999;BME280;71598;46.516;-122.928;2023-12-20T04:34:29;99280.59;;;23.24;19.04
81999;BME280;71598;46.516;-122.928;2023-12-20T04:36:55;99282.30;;;23.92;18.47
81999;BME280;71598;46.516;-122.928;2023-12-20T04:39:21;99287.21;;;24.20;18.22
81999;BME280;71598;46.516;-122.928;2023-12-20T04:41:46;99289.83;;;24.74;18.20
81999;BME280;71598;46.516;-122.928;2023-12-20T04:44:11;99294.97;;;24.68;18.02
81999;BME280;71598;46.516;-122.928;2023-12-20T04:46:37;99298.03;;;24.98;17.89
81999;BME280;71598;46.516;-122.928;2023-12-20T04:49:03;99297.66;;;24.68;17.77
81999;BME280;71598;46.516;-122.928;2023-12-20T04:51:27;99299.63;;;24.99;17.74
81999;BME280;71598;46.516;-122.928;2023-12-20T04:53:53;99302.41;;;25.19;17.70
81999;BME280;71598;46.516;-122.928;2023-12-20T04:56:18;99304.21;;;25.23;17.65
81999;BME280;71598;46.516;-122.928;2023-12-20T04:58:44;99306.02;;;25.05;17.59
81999;BME280;71598;46.516;-122.928;2023-12-20T05:01:10;99308.50;;;24.70;17.71
81999;BME280;71598;46.516;-122.928;2023-12-20T05:03:35;99312.05;;;24.69;17.76
81999;BME280;71598;46.516;-122.928;2023-12-20T05:06:00;99312.81;;;24.80;17.64
81999;BME280;71598;46.516;-122.928;2023-12-20T05:08:26;99310.81;;;24.72;17.65
81999;BME280;71598;46.516;-122.928;2023-12-20T05:10:53;99308.11;;;25.03;17.61
81999;BME280;71598;46.516;-122.928;2023-12-20T05:13:17;99309.55;;;25.03;17.60
81999;BME280;71598;46.516;-122.928;2023-12-20T05:15:42;99311.68;;;24.69;17.79
81999;BME280;71598;46.516;-122.928;2023-12-20T05:18:08;99317.45;;;23.55;18.38
81999;BME280;71598;46.516;-122.928;2023-12-20T05:20:33;99321.87;;;22.42;18.74
81999;BME280;71598;46.516;-122.928;2023-12-20T05:22:59;99321.61;;;22.73;18.68
81999;BME280;71598;46.516;-122.928;2023-12-20T05:25:25;99322.27;;;22.14;18.64
81999;BME280;71598;46.516;-122.928;2023-12-20T05:27:57;99320.56;;;22.41;18.59
81999;BME280;71598;46.516;-122.928;2023-12-20T05:30:16;99319.17;;;22.66;18.53
81999;BME280;71598;46.516;-122.928;2023-12-20T05:32:40;99321.56;;;22.40;18.50
81999;BME280;71598;46.516;-122.928;2023-12-20T05:35:07;99329.67;;;22.32;18.47
81999;BME280;71598;46.516;-122.928;2023-12-20T05:37:31;99333.76;;;22.39;18.44
81999;BME280;71598;46.516;-122.928;2023-12-20T05:39:57;99333.31;;;22.40;18.46
81999;BME280;71598;46.516;-122.928;2023-12-20T05:42:22;99333.89;;;22.48;18.44
81999;BME280;71598;46.516;-122.928;2023-12-20T05:44:48;99335.52;;;22.34;18.40
81999;BME280;71598;46.516;-122.928;2023-12-20T05:47:13;99337.56;;;22.66;18.37
81999;BME280;71598;46.516;-122.928;2023-12-20T05:49:40;99341.87;;;22.51;18.33
81999;BME280;71598;46.516;-122.928;2023-12-20T05:52:05;99346.31;;;22.50;18.30
81999;BME280;71598;46.516;-122.928;2023-12-20T05:54:30;99352.84;;;22.35;18.27
81999;BME280;71598;46.516;-122.928;2023-12-20T05:56:56;99355.71;;;22.69;18.31
81999;BME280;71598;46.516;-122.928;2023-12-20T05:59:21;99356.70;;;22.69;18.31
81999;BME280;71598;46.516;-122.928;2023-12-20T06:01:46;99359.55;;;22.46;18.31
81999;BME280;71598;46.516;-122.928;2023-12-20T06:04:14;99359.66;;;22.67;18.34
81999;BME280;71598;46.516;-122.928;2023-12-20T06:06:41;99361.14;;;22.76;18.36
81999;BME280;71598;46.516;-122.928;2023-12-20T06:09:04;99362.15;;;22.65;18.35
81999;BME280;71598;46.516;-122.928;2023-12-20T06:11:28;99360.38;;;22.62;18.34
81999;BME280;71598;46.516;-122.928;2023-12-20T06:13:53;99357.69;;;22.54;18.39
81999;BME280;71598;46.516;-122.928;2023-12-20T06:16:20;99360.38;;;22.14;18.33
81999;BME280;71598;46.516;-122.928;2023-12-20T06:18:45;99360.12;;;22.59;18.30
81999;BME280;71598;46.516;-122.928;2023-12-20T06:21:10;99362.02;;;22.41;18.33
81999;BME280;71598;46.516;-122.928;2023-12-20T06:23:36;99361.04;;;22.47;18.34
81999;BME280;71598;46.516;-122.928;2023-12-20T06:26:02;99362.73;;;22.53;18.29
81999;BME280;71598;46.516;-122.928;2023-12-20T06:28:27;99365.70;;;22.74;18.29
81999;BME280;71598;46.516;-122.928;2023-12-20T06:30:52;99365.84;;;22.53;18.31
81999;BME280;71598;46.516;-122.928;2023-12-20T06:33:17;99367.22;;;22.43;18.32
81999;BME280;71598;46.516;-122.928;2023-12-20T06:35:43;99370.97;;;22.61;18.48
81999;BME280;71598;46.516;-122.928;2023-12-20T06:38:08;99375.44;;;22.27;18.35
81999;BME280;71598;46.516;-122.928;2023-12-20T06:40:33;99379.45;;;22.13;18.61
81999;BME280;71598;46.516;-122.928;2023-12-20T06:42:59;99384.73;;;21.80;18.89
81999;BME280;71598;46.516;-122.928;2023-12-20T06:45:25;99385.17;;;21.65;19.23
81999;BME280;71598;46.516;-122.928;2023-12-20T06:47:51;99391.06;;;21.32;19.40
81999;BME280;71598;46.516;-122.928;2023-12-20T06:50:17;99394.87;;;20.97;19.60
81999;BME280;71598;46.516;-122.928;2023-12-20T06:52:41;99401.86;;;20.69;19.74
81999;BME280;71598;46.516;-122.928;2023-12-20T06:55:07;99405.60;;;20.49;19.86
81999;BME280;71598;46.516;-122.928;2023-12-20T06:57:33;99413.03;;;20.44;19.95
81999;BME280;71598;46.516;-122.928;2023-12-20T06:59:58;99411.64;;;20.93;19.90
81999;BME280;71598;46.516;-122.928;2023-12-20T07:02:23;99409.60;;;21.28;19.92
81999;BME280;71598;46.516;-122.928;2023-12-20T07:04:48;99409.39;;;21.02;19.98
81999;BME280;71598;46.516;-122.928;2023-12-20T07:07:14;99412.23;;;21.04;20.09
81999;BME280;71598;46.516;-122.928;2023-12-20T07:09:39;99415.62;;;20.79;20.19
81999;BME280;71598;46.516;-122.928;2023-12-20T07:12:05;99419.69;;;20.52;20.35
81999;BME280;71598;46.516;-122.928;2023-12-20T07:14:30;99424.96;;;20.30;20.45
81999;BME280;71598;46.516;-122.928;2023-12-20T07:16:55;99426.92;;;20.22;20.52
81999;BME280;71598;46.516;-122.928;2023-12-20T07:19:21;99427.47;;;20.09;20.59
81999;BME280;71598;46.516;-122.928;2023-12-20T07:21:47;99430.88;;;20.11;20.67
81999;BME280;71598;46.516;-122.928;2023-12-20T07:24:13;99428.50;;;20.00;20.77
81999;BME280;71598;46.516;-122.928;2023-12-20T07:26:38;99430.86;;;20.06;20.78
81999;BME280;71598;46.516;-122.928;2023-12-20T07:29:04;99433.15;;;19.99;20.88
81999;BME280;71598;46.516;-122.928;2023-12-20T07:31:28;99435.16;;;19.69;20.90
81999;BME280;71598;46.516;-122.928;2023-12-20T07:33:54;99434.69;;;19.71;20.93
81999;BME280;71598;46.516;-122.928;2023-12-20T07:36:20;99434.84;;;19.96;20.68
81999;BME280;71598;46.516;-122.928;2023-12-20T07:38:45;99437.19;;;20.11;20.38
81999;BME280;71598;46.516;-122.928;2023-12-20T07:41:11;99440.99;;;20.58;20.15
81999;BME280;71598;46.516;-122.928;2023-12-20T07:43:36;99443.13;;;20.95;19.88
81999;BME280;71598;46.516;-122.928;2023-12-20T07:46:05;99442.63;;;21.40;19.61
81999;BME280;71598;46.516;-122.928;2023-12-20T07:48:27;99447.55;;;21.44;19.49
81999;BME280;71598;46.516;-122.928;2023-12-20T07:50:53;99449.80;;;21.50;19.37
81999;BME280;71598;46.516;-122.928;2023-12-20T07:53:18;99448.65;;;21.40;19.32
81999;BME280;71598;46.516;-122.928;2023-12-20T07:55:43;99451.81;;;21.33;19.27
81999;BME280;71598;46.516;-122.928;2023-12-20T07:58:09;99452.77;;;21.62;19.15
81999;BME280;71598;46.516;-122.928;2023-12-20T08:00:34;99454.20;;;21.94;19.03
81999;BME280;71598;46.516;-122.928;2023-12-20T08:03:00;99459.19;;;21.66;18.97
81999;BME280;71598;46.516;-122.928;2023-12-20T08:05:25;99462.74;;;21.89;18.87
81999;BME280;71598;46.516;-122.928;2023-12-20T08:07:51;99463.11;;;21.87;18.79
81999;BME280;71598;46.516;-122.928;2023-12-20T08:10:16;99460.41;;;22.33;18.77
81999;BME280;71598;46.516;-122.928;2023-12-20T08:12:41;99455.15;;;22.12;18.65
81999;BME280;71598;46.516;-122.928;2023-12-20T08:15:07;99452.65;;;21.69;18.71
81999;BME280;71598;46.516;-122.928;2023-12-20T08:17:32;99448.58;;;21.82;18.64
81999;BME280;71598;46.516;-122.928;2023-12-20T08:19:57;99454.97;;;21.96;18.67
81999;BME280;71598;46.516;-122.928;2023-12-20T08:22:22;99453.68;;;21.66;18.63
81999;BME280;71598;46.516;-122.928;2023-12-20T08:24:48;99452.20;;;21.84;18.55
81999;BME280;71598;46.516;-122.928;2023-12-20T08:27:13;99454.17;;;21.83;18.56
81999;BME280;71598;46.516;-122.928;2023-12-20T08:29:38;99452.69;;;21.90;18.45
81999;BME280;71598;46.516;-122.928;2023-12-20T08:32:03;99451.88;;;22.04;18.41
81999;BME280;71598;46.516;-122.928;2023-12-20T08:34:29;99457.13;;;21.69;18.40
81999;BME280;71598;46.516;-122.928;2023-12-20T08:36:54;99459.92;;;22.02;18.49
81999;BME280;71598;46.516;-122.928;2023-12-20T08:39:19;99462.97;;;21.67;18.44
81999;BME280;71598;46.516;-122.928;2023-12-20T08:41:44;99465.03;;;21.97;18.42
81999;BME280;71598;46.516;-122.928;2023-12-20T08:44:10;99464.22;;;21.76;18.48
81999;BME280;71598;46.516;-122.928;2023-12-20T08:46:35;99469.34;;;21.75;18.47
81999;BME280;71598;46.516;-122.928;2023-12-20T08:49:00;99472.45;;;21.62;18.46
81999;BME280;71598;46.516;-122.928;2023-12-20T08:51:28;99472.04;;;21.62;18.49
81999;BME280;71598;46.516;-122.928;2023-12-20T08:53:51;99472.34;;;21.92;18.54
81999;BME280;71598;46.516;-122.928;2023-12-20T08:56:16;99472.83;;;21.63;18.55
81999;BME280;71598;46.516;-122.928;2023-12-20T08:58:42;99471.86;;;21.64;18.65
81999;BME280;71598;46.516;-122.928;2023-12-20T09:01:07;99478.89;;;21.46;18.61
81999;BME280;71598;46.516;-122.928;2023-12-20T09:03:32;99480.90;;;21.69;18.57
81999;BME280;71598;46.516;-122.928;2023-12-20T09:05:58;99482.41;;;21.56;18.61
81999;BME280;71598;46.516;-122.928;2023-12-20T09:08:23;99483.93;;;21.42;18.64
81999;BME280;71598;46.516;-122.928;2023-12-20T09:10:49;99484.60;;;21.63;18.65
81999;BME280;71598;46.516;-122.928;2023-12-20T09:13:15;99486.23;;;21.74;18.64
81999;BME280;71598;46.516;-122.928;2023-12-20T09:15:40;99482.76;;;21.54;18.63
81999;BME280;71598;46.516;-122.928;2023-12-20T09:18:05;99481.60;;;21.73;18.63
81999;BME280;71598;46.516;-122.928;2023-12-20T09:20:31;99479.91;;;21.81;18.62
81999;BME280;71598;46.516;-122.928;2023-12-20T09:22:56;99483.06;;;21.53;18.70
81999;BME280;71598;46.516;-122.928;2023-12-20T09:25:22;99480.57;;;21.65;18.57
81999;BME280;71598;46.516;-122.928;2023-12-20T09:27:47;99484.28;;;21.38;18.68
81999;BME280;71598;46.516;-122.928;2023-12-20T09:30:14;99484.43;;;21.44;18.71
81999;BME280;71598;46.516;-122.928;2023-12-20T09:32:39;99486.68;;;21.58;18.61
81999;BME280;71598;46.516;-122.928;2023-12-20T09:35:04;99485.72;;;21.17;18.62
81999;BME280;71598;46.516;-122.928;2023-12-20T09:37:29;99490.83;;;21.35;18.67
81999;BME280;71598;46.516;-122.928;2023-12-20T09:39:55;99493.23;;;21.15;18.78
81999;BME280;71598;46.516;-122.928;2023-12-20T09:42:28;99492.45;;;21.56;18.68
81999;BME280;71598;46.516;-122.928;2023-12-20T09:44:45;99493.46;;;21.31;18.68
81999;BME280;71598;46.516;-122.928;2023-12-20T09:47:10;99496.31;;;21.12;18.82
81999;BME280;71598;46.516;-122.928;2023-12-20T09:49:37;99500.04;;;21.18;18.66
81999;BME280;71598;46.516;-122.928;2023-12-20T09:52:03;99501.93;;;21.25;18.67
81999;BME280;71598;46.516;-122.928;2023-12-20T09:54:28;99505.68;;;21.25;18.67
81999;BME280;71598;46.516;-122.928;2023-12-20T09:56:53;99509.69;;;21.24;18.71
81999;BME280;71598;46.516;-122.928;2023-12-20T09:59:18;99514.17;;;21.45;18.59
81999;BME280;71598;46.516;-122.928;2023-12-20T10:01:44;99520.11;;;21.08;18.57
81999;BME280;71598;46.516;-122.928;2023-12-20T10:04:11;99524.25;;;21.07;18.47
81999;BME280;71598;46.516;-122.928;2023-12-20T10:06:35;99528.30;;;21.52;18.38
81999;BME280;71598;46.516;-122.928;2023-12-20T10:09:00;99530.84;;;21.51;18.31
81999;BME280;71598;46.516;-122.928;2023-12-20T10:11:26;99534.14;;;21.88;18.27
81999;BME280;71598;46.516;-122.928;2023-12-20T10:13:51;99540.95;;;21.60;18.35
81999;BME280;71598;46.516;-122.928;2023-12-20T10:16:17;99548.72;;;21.57;18.34
81999;BME280;71598;46.516;-122.928;2023-12-20T10:18:43;99553.71;;;21.42;18.37
81999;BME280;71598;46.516;-122.928;2023-12-20T10:21:08;99552.90;;;21.62;18.31
81999;BME280;71598;46.516;-122.928;2023-12-20T10:23:34;99554.51;;;21.69;18.42
81999;BME280;71598;46.516;-122.928;2023-12-20T10:26:00;99552.96;;;21.36;18.47
81999;BME280;71598;46.516;-122.928;2023-12-20T10:28:26;99555.83;;;21.52;18.46
81999;BME280;71598;46.516;-122.928;2023-12-20T10:30:50;99557.42;;;21.58;18.34
81999;BME280;71598;46.516;-122.928;2023-12-20T10:33:24;99560.87;;;21.36;18.28
81999;BME280;71598;46.516;-122.928;2023-12-20T10:35:42;99565.20;;;21.48;18.37
81999;BME280;71598;46.516;-122.928;2023-12-20T10:38:08;99571.66;;;21.36;18.35
81999;BME280;71598;46.516;-122.928;2023-12-20T10:40:35;99570.44;;;21.32;18.41
81999;BME280;71598;46.516;-122.928;2023-12-20T10:42:59;99568.86;;;21.38;18.37
81999;BME280;71598;46.516;-122.928;2023-12-20T10:45:24;99566.57;;;21.31;18.40
81999;BME280;71598;46.516;-122.928;2023-12-20T10:47:50;99569.74;;;21.05;18.47
81999;BME280;71598;46.516;-122.928;2023-12-20T10:50:15;99565.46;;;21.26;18.41
81999;BME280;71598;46.516;-122.928;2023-12-20T10:52:41;99563.35;;;21.31;18.47
81999;BME280;71598;46.516;-122.928;2023-12-20T10:55:07;99557.58;;;21.18;18.42
81999;BME280;71598;46.516;-122.928;2023-12-20T10:57:31;99562.12;;;21.06;18.49
81999;BME280;71598;46.516;-122.928;2023-12-20T10:59:57;99573.07;;;21.13;18.52
81999;BME280;71598;46.516;-122.928;2023-12-20T11:02:23;99580.48;;;20.83;18.59
81999;BME280;71598;46.516;-122.928;2023-12-20T11:04:59;99587.17;;;21.15;18.52
81999;BME280;71598;46.516;-122.928;2023-12-20T11:07:20;99588.68;;;20.75;18.68
81999;BME280;71598;46.516;-122.928;2023-12-20T11:09:43;99591.75;;;21.04;18.62
81999;BME280;71598;46.516;-122.928;2023-12-20T11:12:10;99588.15;;;20.92;18.61
81999;BME280;71598;46.516;-122.928;2023-12-20T11:14:41;99585.82;;;20.89;18.67
81999;BME280;71598;46.516;-122.928;2023-12-20T11:17:07;99581.43;;;20.77;18.65
81999;BME280;71598;46.516;-122.928;2023-12-20T11:19:20;99579.47;;;21.05;18.58
81999;BME280;71598;46.516;-122.928;2023-12-20T11:21:46;99574.88;;;21.11;18.61
81999;BME280;71598;46.516;-122.928;2023-12-20T11:24:10;99570.24;;;20.84;18.67
81999;BME280;71598;46.516;-122.928;2023-12-20T11:26:36;99568.73;;;21.07;18.62
81999;BME280;71598;46.516;-122.928;2023-12-20T11:29:52;99570.07;;;21.02;18.53
81999;BME280;71598;46.516;-122.928;2023-12-20T11:31:27;99566.84;;;19.65;18.68
81999;BME280;71598;46.516;-122.928;2023-12-20T11:33:52;99562.30;;;21.05;18.51
81999;BME280;71598;46.516;-122.928;2023-12-20T11:36:20;99569.20;;;20.76;18.55
81999;BME280;71598;46.516;-122.928;2023-12-20T11:38:54;99573.81;;;20.95;18.52
81999;BME280;71598;46.516;-122.928;2023-12-20T11:41:09;99574.88;;;21.16;18.60
81999;BME280;71598;46.516;-122.928;2023-12-20T11:43:37;99569.52;;;21.11;18.62
81999;BME280;71598;46.516;-122.928;2023-12-20T11:46:04;99567.40;;;21.34;18.84
81999;BME280;71598;46.516;-122.928;2023-12-20T11:48:25;99565.12;;;21.01;18.91
81999;BME280;71598;46.516;-122.928;2023-12-20T11:50:50;99566.44;;;21.18;18.88
81999;BME280;71598;46.516;-122.928;2023-12-20T11:53:17;99567.61;;;21.07;18.95
81999;BME280;71598;46.516;-122.928;2023-12-20T11:55:42;99569.93;;;20.90;18.95
81999;BME280;71598;46.516;-122.928;2023-12-20T11:58:07;99569.67;;;21.29;18.83
81999;BME280;71598;46.516;-122.928;2023-12-20T12:00:33;99567.54;;;20.71;18.99
81999;BME280;71598;46.516;-122.928;2023-12-20T12:02:59;99565.72;;;20.81;18.94
81999;BME280;71598;46.516;-122.928;2023-12-20T12:05:23;99563.91;;;20.78;18.94
81999;BME280;71598;46.516;-122.928;2023-12-20T12:07:48;99570.94;;;20.70;18.97
81999;BME280;71598;46.516;-122.928;2023-12-20T12:10:14;99580.88;;;20.60;18.95
81999;BME280;71598;46.516;-122.928;2023-12-20T12:12:39;99586.20;;;20.77;18.97
81999;BME280;71598;46.516;-122.928;2023-12-20T12:15:06;99583.43;;;20.75;18.98
81999;BME280;71598;46.516;-122.928;2023-12-20T12:17:30;99581.26;;;20.65;19.02
81999;BME280;71598;46.516;-122.928;2023-12-20T12:20:04;99582.11;;;21.11;18.99